sensor_id;sensor_type;location;lat;lon;timestamp;temperature;humidity
33741;DHT22;20065;48.380;10.892;2023-07-29T00:02:38;17.80;99.90
33741;DHT22;20065;48.380;10.892;2023-07-29T00:05:24;17.80;99.90
33741;DHT22;20065;48.380;10.892;2023-07-29T00:08:11;17.80;99.90
33741;DHT22;20065;48.380;10.892;2023-07-29T00:10:57;17.70;99.90
33741;DHT22;20065;48.380;10.892;2023-07-29T00:13:45;17.70;99.90
33741;DHT22;20065;48.380;10.892;2023-07-29T00:16:33;17.70;99.90
33741;DHT22;20065;48.380;10.892;2023-07-29T00:19:19;17.80;99.90
33741;DHT22;20065;48.380;10.892;2023-07-29T00:22:09;17.90;99.90
33741;DHT22;20065;48.380;10.892;2023-07-29T00:24:56;17.90;99.90
33741;DHT22;20065;48.380;10.892;2023-07-29T00:27:43;18.00;99.90
33741;DHT22;20065;48.380;10.892;2023-07-29T00:30:29;18.20;99.90
33741;DHT22;20065;48.380;10.892;2023-07-29T00:33:16;18.30;99.90
33741;DHT22;20065;48.380;10.892;2023-07-29T00:36:02;18.40;99.90
33741;DHT22;20065;48.380;10.892;2023-07-29T00:38:48;18.20;99.90
33741;DHT22;20065;48.380;10.892;2023-07-29T00:41:35;18.20;99.90
33741;DHT22;20065;48.380;10.892;2023-07-29T00:44:21;18.00;99.90
33741;DHT22;20065;48.380;10.892;2023-07-29T00:47:08;18.00;99.90
33741;DHT22;20065;48.380;10.892;2023-07-29T00:49:54;18.00;99.90
33741;DHT22;20065;48.380;10.892;2023-07-29T00:52:41;18.00;99.90
33741;DHT22;20065;48.380;10.892;2023-07-29T00:55:28;18.00;99.90
33741;DHT22;20065;48.380;10.892;2023-07-29T00:58:14;18.00;99.90
33741;DHT22;20065;48.380;10.892;2023-07-29T01:01:01;18.20;99.90
33741;DHT22;20065;48.380;10.892;2023-07-29T01:03:48;18.10;99.90
33741;DHT22;20065;48.380;10.892;2023-07-29T01:06:50;18.20;99.90
33741;DHT22;20065;48.380;10.892;2023-07-29T01:13:13;18.10;99.90
33741;DHT22;20065;48.380;10.892;2023-07-29T01:16:10;18.10;99.90
33741;DHT22;20065;48.380;10.892;2023-07-29T01:19:01;18.20;99.90
33741;DHT22;20065;48.380;10.892;2023-07-29T01:21:51;18.00;99.90
33741;DHT22;20065;48.380;10.892;2023-07-29T01:24:39;18.00;99.90
33741;DHT22;20065;48.380;10.892;2023-07-29T01:27:26;18.00;99.90
33741;DHT22;20065;48.380;10.892;2023-07-29T01:30:12;18.00;99.90
33741;DHT22;20065;48.380;10.892;2023-07-29T01:33:13;17.90;99.90
33741;DHT22;20065;48.380;10.892;2023-07-29T01:36:11;17.90;99.90
33741;DHT22;20065;48.380;10.892;2023-07-29T01:39:00;18.00;99.90
33741;DHT22;20065;48.380;10.892;2023-07-29T01:41:48;18.00;99.90
33741;DHT22;20065;48.380;10.892;2023-07-29T01:44:34;17.90;99.90
33741;DHT22;20065;48.380;10.892;2023-07-29T01:47:21;17.70;99.90
33741;DHT22;20065;48.380;10.892;2023-07-29T01:50:09;17.80;99.90
33741;DHT22;20065;48.380;10.892;2023-07-29T01:52:55;17.90;99.90
33741;DHT22;20065;48.380;10.892;2023-07-29T01:55:42;17.90;99.90
33741;DHT22;20065;48.380;10.892;2023-07-29T01:58:30;18.10;99.90
33741;DHT22;20065;48.380;10.892;2023-07-29T02:01:16;18.20;99.90
33741;DHT22;20065;48.380;10.892;2023-07-29T02:04:03;18.10;99.90
33741;DHT22;20065;48.380;10.892;2023-07-29T02:06:49;18.10;99.90
33741;DHT22;20065;48.380;10.892;2023-07-29T02:09:35;18.20;99.90
33741;DHT22;20065;48.380;10.892;2023-07-29T02:12:21;18.10;99.90
33741;DHT22;20065;48.380;10.892;2023-07-29T02:15:08;18.20;99.90
33741;DHT22;20065;48.380;10.892;2023-07-29T02:17:55;18.30;99.90
33741;DHT22;20065;48.380;10.892;2023-07-29T02:20:41;18.10;99.90
33741;DHT22;20065;48.380;10.892;2023-07-29T02:23:34;18.10;99.90
33741;DHT22;20065;48.380;10.892;2023-07-29T02:26:21;18.10;99.90
33741;DHT22;20065;48.380;10.892;2023-07-29T02:29:07;18.10;99.90
33741;DHT22;20065;48.380;10.892;2023-07-29T02:31:54;17.90;99.90
33741;DHT22;20065;48.380;10.892;2023-07-29T02:34:40;17.90;99.90
33741;DHT22;20065;48.380;10.892;2023-07-29T02:37:26;18.00;99.90
33741;DHT22;20065;48.380;10.892;2023-07-29T02:40:12;17.90;99.90
33741;DHT22;20065;48.380;10.892;2023-07-29T02:42:59;17.90;99.90
33741;DHT22;20065;48.380;10.892;2023-07-29T02:45:45;17.80;99.90
33741;DHT22;20065;48.380;10.892;2023-07-29T02:48:32;17.70;99.90
33741;DHT22;20065;48.380;10.892;2023-07-29T02:51:22;17.90;99.90
33741;DHT22;20065;48.380;10.892;2023-07-29T02:54:08;18.80;99.90
33741;DHT22;20065;48.380;10.892;2023-07-29T02:56:54;18.00;99.90
33741;DHT22;20065;48.380;10.892;2023-07-29T02:59:40;17.90;99.90
33741;DHT22;20065;48.380;10.892;2023-07-29T03:02:26;18.00;99.90
33741;DHT22;20065;48.380;10.892;2023-07-29T03:05:13;18.10;99.90
33741;DHT22;20065;48.380;10.892;2023-07-29T03:07:59;18.20;99.90
33741;DHT22;20065;48.380;10.892;2023-07-29T03:10:45;18.20;99.90
33741;DHT22;20065;48.380;10.892;2023-07-29T03:13:31;18.10;99.90
33741;DHT22;20065;48.380;10.892;2023-07-29T03:16:17;18.10;99.90
33741;DHT22;20065;48.380;10.892;2023-07-29T03:19:10;18.10;99.90
33741;DHT22;20065;48.380;10.892;2023-07-29T03:21:56;17.90;99.90
33741;DHT22;20065;48.380;10.892;2023-07-29T03:24:42;17.60;99.90
33741;DHT22;20065;48.380;10.892;2023-07-29T03:27:29;17.50;99.90
33741;DHT22;20065;48.380;10.892;2023-07-29T03:30:15;17.50;99.90
33741;DHT22;20065;48.380;10.892;2023-07-29T03:33:04;17.60;99.90
33741;DHT22;20065;48.380;10.892;2023-07-29T03:35:51;17.70;99.90
33741;DHT22;20065;48.380;10.892;2023-07-29T03:38:38;17.70;99.90
33741;DHT22;20065;48.380;10.892;2023-07-29T03:41:26;17.70;99.90
33741;DHT22;20065;48.380;10.892;2023-07-29T03:44:12;17.90;99.90
33741;DHT22;20065;48.380;10.892;2023-07-29T03:46:58;17.90;99.90
33741;DHT22;20065;48.380;10.892;2023-07-29T03:49:45;17.80;99.90
33741;DHT22;20065;48.380;10.892;2023-07-29T03:52:31;17.70;99.90
33741;DHT22;20065;48.380;10.892;2023-07-29T03:55:18;17.70;99.90
33741;DHT22;20065;48.380;10.892;2023-07-29T03:58:04;17.70;99.90
33741;DHT22;20065;48.380;10.892;2023-07-29T04:00:50;17.60;99.90
33741;DHT22;20065;48.380;10.892;2023-07-29T04:03:37;17.50;99.90
33741;DHT22;20065;48.380;10.892;2023-07-29T04:06:23;17.50;99.90
33741;DHT22;20065;48.380;10.892;2023-07-29T04:09:09;17.50;99.90
33741;DHT22;20065;48.380;10.892;2023-07-29T04:11:56;17.50;99.90
33741;DHT22;20065;48.380;10.892;2023-07-29T04:14:42;17.70;99.90
33741;DHT22;20065;48.380;10.892;2023-07-29T04:17:28;17.70;99.90
33741;DHT22;20065;48.380;10.892;2023-07-29T04:20:14;17.70;99.90
33741;DHT22;20065;48.380;10.892;2023-07-29T04:23:00;17.60;99.90
33741;DHT22;20065;48.380;10.892;2023-07-29T04:25:46;17.40;99.90
33741;DHT22;20065;48.380;10.892;2023-07-29T04:28:33;17.30;99.90
33741;DHT22;20065;48.380;10.892;2023-07-29T04:31:19;17.30;99.90
33741;DHT22;20065;48.380;10.892;2023-07-29T04:34:05;17.20;99.90
33741;DHT22;20065;48.380;10.892;2023-07-29T04:36:52;17.10;99.90
33741;DHT22;20065;48.380;10.892;2023-07-29T04:39:38;17.10;99.90
33741;DHT22;20065;48.380;10.892;2023-07-29T04:42:24;17.20;99.90
33741;DHT22;20065;48.380;10.892;2023-07-29T04:45:10;17.20;99.90
33741;DHT22;20065;48.380;10.892;2023-07-29T04:47:58;17.30;99.90
33741;DHT22;20065;48.380;10.892;2023-07-29T04:50:44;17.30;99.90
33741;DHT22;20065;48.380;10.892;2023-07-29T04:53:31;17.40;99.90
33741;DHT22;20065;48.380;10.892;2023-07-29T04:56:23;17.40;99.90
33741;DHT22;20065;48.380;10.892;2023-07-29T04:59:12;17.40;99.90
33741;DHT22;20065;48.380;10.892;2023-07-29T05:01:59;17.40;99.90
33741;DHT22;20065;48.380;10.892;2023-07-29T05:04:45;17.50;99.90
33741;DHT22;20065;48.380;10.892;2023-07-29T05:07:31;17.40;99.90
33741;DHT22;20065;48.380;10.892;2023-07-29T05:10:17;17.40;99.90
33741;DHT22;20065;48.380;10.892;2023-07-29T05:13:04;17.50;99.90
33741;DHT22;20065;48.380;10.892;2023-07-29T05:15:50;17.50;99.90
33741;DHT22;20065;48.380;10.892;2023-07-29T05:18:37;17.60;99.90
33741;DHT22;20065;48.380;10.892;2023-07-29T05:21:24;17.70;99.90
33741;DHT22;20065;48.380;10.892;2023-07-29T05:24:10;17.90;99.90
33741;DHT22;20065;48.380;10.892;2023-07-29T05:26:56;18.00;99.90
33741;DHT22;20065;48.380;10.892;2023-07-29T05:29:42;18.10;99.90
33741;DHT22;20065;48.380;10.892;2023-07-29T05:32:29;18.20;99.90
33741;DHT22;20065;48.380;10.892;2023-07-29T05:35:15;18.20;99.90
33741;DHT22;20065;48.380;10.892;2023-07-29T05:38:02;18.30;99.90
33741;DHT22;20065;48.380;10.892;2023-07-29T05:40:50;18.30;99.90
33741;DHT22;20065;48.380;10.892;2023-07-29T05:43:36;18.30;99.90
33741;DHT22;20065;48.380;10.892;2023-07-29T05:46:23;18.30;99.90
33741;DHT22;20065;48.380;10.892;2023-07-29T05:49:09;18.40;99.90
33741;DHT22;20065;48.380;10.892;2023-07-29T05:51:55;18.30;99.90
33741;DHT22;20065;48.380;10.892;2023-07-29T05:54:41;18.30;99.90
33741;DHT22;20065;48.380;10.892;2023-07-29T05:57:28;18.30;99.90
33741;DHT22;20065;48.380;10.892;2023-07-29T06:00:15;18.30;99.90
33741;DHT22;20065;48.380;10.892;2023-07-29T06:03:01;18.40;99.90
33741;DHT22;20065;48.380;10.892;2023-07-29T06:05:48;18.50;99.90
33741;DHT22;20065;48.380;10.892;2023-07-29T06:08:34;18.60;99.90
33741;DHT22;20065;48.380;10.892;2023-07-29T06:11:21;18.50;99.90
33741;DHT22;20065;48.380;10.892;2023-07-29T06:14:07;18.40;99.90
33741;DHT22;20065;48.380;10.892;2023-07-29T06:16:53;18.20;99.90
33741;DHT22;20065;48.380;10.892;2023-07-29T06:19:39;18.30;99.90
33741;DHT22;20065;48.380;10.892;2023-07-29T06:22:26;18.40;99.90
33741;DHT22;20065;48.380;10.892;2023-07-29T06:25:12;18.60;99.90
33741;DHT22;20065;48.380;10.892;2023-07-29T06:27:58;18.50;99.90
33741;DHT22;20065;48.380;10.892;2023-07-29T06:30:44;18.50;99.90
33741;DHT22;20065;48.380;10.892;2023-07-29T06:33:31;18.30;99.90
33741;DHT22;20065;48.380;10.892;2023-07-29T06:36:17;18.40;99.90
33741;DHT22;20065;48.380;10.892;2023-07-29T06:39:03;18.10;99.90
33741;DHT22;20065;48.380;10.892;2023-07-29T06:41:50;18.00;99.90
33741;DHT22;20065;48.380;10.892;2023-07-29T06:44:38;18.20;99.90
33741;DHT22;20065;48.380;10.892;2023-07-29T06:47:25;18.30;99.90
33741;DHT22;20065;48.380;10.892;2023-07-29T06:50:11;18.30;99.90
33741;DHT22;20065;48.380;10.892;2023-07-29T06:52:57;18.20;99.90
33741;DHT22;20065;48.380;10.892;2023-07-29T06:55:44;18.20;99.90
33741;DHT22;20065;48.380;10.892;2023-07-29T06:58:30;18.40;99.90
33741;DHT22;20065;48.380;10.892;2023-07-29T07:01:16;18.50;99.90
33741;DHT22;20065;48.380;10.892;2023-07-29T07:04:03;18.40;99.90
33741;DHT22;20065;48.380;10.892;2023-07-29T07:06:49;18.40;99.90
33741;DHT22;20065;48.380;10.892;2023-07-29T07:09:35;18.40;99.90
33741;DHT22;20065;48.380;10.892;2023-07-29T07:12:22;18.50;99.90
33741;DHT22;20065;48.380;10.892;2023-07-29T07:15:08;18.50;99.90
33741;DHT22;20065;48.380;10.892;2023-07-29T07:17:55;18.60;99.90
33741;DHT22;20065;48.380;10.892;2023-07-29T07:20:41;18.60;99.90
33741;DHT22;20065;48.380;10.892;2023-07-29T07:23:27;18.80;99.90
33741;DHT22;20065;48.380;10.892;2023-07-29T07:26:13;18.70;99.90
33741;DHT22;20065;48.380;10.892;2023-07-29T07:28:59;18.60;99.90
33741;DHT22;20065;48.380;10.892;2023-07-29T07:31:53;18.70;99.90
33741;DHT22;20065;48.380;10.892;2023-07-29T07:34:39;18.80;99.90
33741;DHT22;20065;48.380;10.892;2023-07-29T07:37:25;18.70;99.90
33741;DHT22;20065;48.380;10.892;2023-07-29T07:40:12;18.70;99.90
33741;DHT22;20065;48.380;10.892;2023-07-29T07:42:58;18.70;99.90
33741;DHT22;20065;48.380;10.892;2023-07-29T07:45:44;18.70;99.90
33741;DHT22;20065;48.380;10.892;2023-07-29T07:48:30;18.60;99.90
33741;DHT22;20065;48.380;10.892;2023-07-29T07:51:19;18.60;99.90
33741;DHT22;20065;48.380;10.892;2023-07-29T07:54:05;18.70;99.90
33741;DHT22;20065;48.380;10.892;2023-07-29T07:56:51;18.80;99.90
33741;DHT22;20065;48.380;10.892;2023-07-29T07:59:38;18.80;99.90
33741;DHT22;20065;48.380;10.892;2023-07-29T08:02:24;18.80;99.90
33741;DHT22;20065;48.380;10.892;2023-07-29T08:05:10;18.90;99.90
33741;DHT22;20065;48.380;10.892;2023-07-29T08:07:56;19.00;99.90
33741;DHT22;20065;48.380;10.892;2023-07-29T08:10:43;19.00;99.90
33741;DHT22;20065;48.380;10.892;2023-07-29T08:13:29;19.00;99.90
33741;DHT22;20065;48.380;10.892;2023-07-29T08:16:15;19.10;99.90
33741;DHT22;20065;48.380;10.892;2023-07-29T08:19:02;19.20;99.90
33741;DHT22;20065;48.380;10.892;2023-07-29T08:21:49;19.20;99.90
33741;DHT22;20065;48.380;10.892;2023-07-29T08:24:35;19.30;99.90
33741;DHT22;20065;48.380;10.892;2023-07-29T08:27:22;19.20;99.90
33741;DHT22;20065;48.380;10.892;2023-07-29T08:30:08;19.30;99.90
33741;DHT22;20065;48.380;10.892;2023-07-29T08:32:54;19.30;99.90
33741;DHT22;20065;48.380;10.892;2023-07-29T08:35:41;19.20;99.90
33741;DHT22;20065;48.380;10.892;2023-07-29T08:38:27;19.40;99.90
33741;DHT22;20065;48.380;10.892;2023-07-29T08:41:14;19.40;99.90
33741;DHT22;20065;48.380;10.892;2023-07-29T08:44:12;19.50;99.90
33741;DHT22;20065;48.380;10.892;2023-07-29T08:46:59;19.60;99.90
33741;DHT22;20065;48.380;10.892;2023-07-29T08:49:47;19.60;99.90
33741;DHT22;20065;48.380;10.892;2023-07-29T08:52:34;19.60;99.90
33741;DHT22;20065;48.380;10.892;2023-07-29T08:55:21;19.60;99.90
33741;DHT22;20065;48.380;10.892;2023-07-29T08:58:07;19.70;99.90
33741;DHT22;20065;48.380;10.892;2023-07-29T09:00:54;19.70;99.90
33741;DHT22;20065;48.380;10.892;2023-07-29T09:03:41;19.80;99.90
33741;DHT22;20065;48.380;10.892;2023-07-29T09:06:31;19.90;99.90
33741;DHT22;20065;48.380;10.892;2023-07-29T09:09:17;20.00;99.90
33741;DHT22;20065;48.380;10.892;2023-07-29T09:12:04;20.10;99.90
33741;DHT22;20065;48.380;10.892;2023-07-29T09:14:53;20.20;99.90
33741;DHT22;20065;48.380;10.892;2023-07-29T09:17:40;20.30;99.90
33741;DHT22;20065;48.380;10.892;2023-07-29T09:20:27;20.40;99.90
33741;DHT22;20065;48.380;10.892;2023-07-29T09:23:14;20.60;99.90
33741;DHT22;20065;48.380;10.892;2023-07-29T09:26:01;20.80;99.90
33741;DHT22;20065;48.380;10.892;2023-07-29T09:28:52;20.90;99.90
33741;DHT22;20065;48.380;10.892;2023-07-29T09:31:39;21.00;99.90
33741;DHT22;20065;48.380;10.892;2023-07-29T09:34:26;21.10;99.90
33741;DHT22;20065;48.380;10.892;2023-07-29T09:37:32;21.00;99.90
33741;DHT22;20065;48.380;10.892;2023-07-29T09:40:18;21.00;99.90
33741;DHT22;20065;48.380;10.892;2023-07-29T09:43:06;21.00;99.90
33741;DHT22;20065;48.380;10.892;2023-07-29T09:45:53;21.00;99.90
33741;DHT22;20065;48.380;10.892;2023-07-29T09:48:39;21.00;99.90
33741;DHT22;20065;48.380;10.892;2023-07-29T09:51:32;20.90;99.90
33741;DHT22;20065;48.380;10.892;2023-07-29T09:54:24;20.90;99.90
33741;DHT22;20065;48.380;10.892;2023-07-29T09:57:15;20.80;99.90
33741;DHT22;20065;48.380;10.892;2023-07-29T10:00:02;20.70;99.90
33741;DHT22;20065;48.380;10.892;2023-07-29T10:02:52;20.60;99.90
33741;DHT22;20065;48.380;10.892;2023-07-29T10:05:39;20.30;99.90
33741;DHT22;20065;48.380;10.892;2023-07-29T10:08:26;20.00;99.90
33741;DHT22;20065;48.380;10.892;2023-07-29T10:11:16;19.80;99.90
33741;DHT22;20065;48.380;10.892;2023-07-29T10:14:05;19.60;99.90
33741;DHT22;20065;48.380;10.892;2023-07-29T10:16:52;19.50;99.90
33741;DHT22;20065;48.380;10.892;2023-07-29T10:19:39;19.50;99.90
33741;DHT22;20065;48.380;10.892;2023-07-29T10:22:28;19.20;99.90
33741;DHT22;20065;48.380;10.892;2023-07-29T10:25:22;19.00;99.90
33741;DHT22;20065;48.380;10.892;2023-07-29T10:28:08;18.90;99.90
33741;DHT22;20065;48.380;10.892;2023-07-29T10:30:58;18.70;99.90
33741;DHT22;20065;48.380;10.892;2023-07-29T10:33:45;18.70;99.90
33741;DHT22;20065;48.380;10.892;2023-07-29T10:36:32;18.70;99.90
33741;DHT22;20065;48.380;10.892;2023-07-29T10:39:18;18.70;99.90
33741;DHT22;20065;48.380;10.892;2023-07-29T10:42:05;18.60;99.90
33741;DHT22;20065;48.380;10.892;2023-07-29T10:44:53;18.60;99.90
33741;DHT22;20065;48.380;10.892;2023-07-29T10:47:39;18.60;99.90
33741;DHT22;20065;48.380;10.892;2023-07-29T10:50:25;18.70;99.90
33741;DHT22;20065;48.380;10.892;2023-07-29T10:53:16;18.80;99.90
33741;DHT22;20065;48.380;10.892;2023-07-29T10:56:02;19.10;99.90
33741;DHT22;20065;48.380;10.892;2023-07-29T10:58:48;19.40;99.90
33741;DHT22;20065;48.380;10.892;2023-07-29T11:01:35;19.30;99.90
33741;DHT22;20065;48.380;10.892;2023-07-29T11:10:01;19.80;99.90
33741;DHT22;20065;48.380;10.892;2023-07-29T11:12:49;20.00;99.90
33741;DHT22;20065;48.380;10.892;2023-07-29T11:15:40;20.20;99.90
33741;DHT22;20065;48.380;10.892;2023-07-29T11:18:28;20.30;99.90
33741;DHT22;20065;48.380;10.892;2023-07-29T11:21:15;20.50;99.90
33741;DHT22;20065;48.380;10.892;2023-07-29T11:24:01;20.70;99.90
33741;DHT22;20065;48.380;10.892;2023-07-29T11:26:47;20.80;99.90
33741;DHT22;20065;48.380;10.892;2023-07-29T11:29:33;20.90;99.90
33741;DHT22;20065;48.380;10.892;2023-07-29T11:32:20;20.80;99.90
33741;DHT22;20065;48.380;10.892;2023-07-29T11:35:14;20.60;99.90
33741;DHT22;20065;48.380;10.892;2023-07-29T11:38:03;20.50;99.90
33741;DHT22;20065;48.380;10.892;2023-07-29T11:40:57;20.40;99.90
33741;DHT22;20065;48.380;10.892;2023-07-29T11:43:44;20.30;99.90
33741;DHT22;20065;48.380;10.892;2023-07-29T11:46:30;20.40;99.90
33741;DHT22;20065;48.380;10.892;2023-07-29T11:49:16;20.50;99.90
33741;DHT22;20065;48.380;10.892;2023-07-29T11:52:03;20.60;99.90
33741;DHT22;20065;48.380;10.892;2023-07-29T11:54:52;20.60;99.90
33741;DHT22;20065;48.380;10.892;2023-07-29T11:57:41;20.60;99.90
33741;DHT22;20065;48.380;10.892;2023-07-29T12:00:28;20.70;99.90
33741;DHT22;20065;48.380;10.892;2023-07-29T12:03:14;20.60;99.90
33741;DHT22;20065;48.380;10.892;2023-07-29T12:06:03;20.70;99.90
33741;DHT22;20065;48.380;10.892;2023-07-29T12:08:49;20.80;99.90
33741;DHT22;20065;48.380;10.892;2023-07-29T12:11:36;21.10;99.90
33741;DHT22;20065;48.380;10.892;2023-07-29T12:14:28;21.30;99.90
33741;DHT22;20065;48.380;10.892;2023-07-29T12:17:15;21.40;99.90
33741;DHT22;20065;48.380;10.892;2023-07-29T12:20:01;21.50;99.90
33741;DHT22;20065;48.380;10.892;2023-07-29T12:22:59;21.60;99.90
33741;DHT22;20065;48.380;10.892;2023-07-29T12:25:47;21.70;99.90
33741;DHT22;20065;48.380;10.892;2023-07-29T12:28:38;21.80;99.90
33741;DHT22;20065;48.380;10.892;2023-07-29T12:34:56;21.90;99.90
33741;DHT22;20065;48.380;10.892;2023-07-29T12:37:42;22.00;99.90
33741;DHT22;20065;48.380;10.892;2023-07-29T12:40:29;22.00;99.90
33741;DHT22;20065;48.380;10.892;2023-07-29T12:43:15;22.20;99.90
33741;DHT22;20065;48.380;10.892;2023-07-29T12:46:01;22.40;99.90
33741;DHT22;20065;48.380;10.892;2023-07-29T12:48:50;22.40;99.90
33741;DHT22;20065;48.380;10.892;2023-07-29T12:51:37;22.50;99.90
33741;DHT22;20065;48.380;10.892;2023-07-29T12:54:24;22.70;99.90
33741;DHT22;20065;48.380;10.892;2023-07-29T12:57:11;22.80;99.90
33741;DHT22;20065;48.380;10.892;2023-07-29T12:59:57;22.90;99.90
33741;DHT22;20065;48.380;10.892;2023-07-29T13:02:43;22.90;99.90
33741;DHT22;20065;48.380;10.892;2023-07-29T13:05:29;22.80;99.90
33741;DHT22;20065;48.380;10.892;2023-07-29T13:08:15;22.60;99.90
33741;DHT22;20065;48.380;10.892;2023-07-29T13:11:02;22.50;99.90
33741;DHT22;20065;48.380;10.892;2023-07-29T13:13:49;22.60;99.90
33741;DHT22;20065;48.380;10.892;2023-07-29T13:16:36;22.60;99.90
33741;DHT22;20065;48.380;10.892;2023-07-29T13:19:22;22.70;99.90
33741;DHT22;20065;48.380;10.892;2023-07-29T13:22:08;22.80;99.90
33741;DHT22;20065;48.380;10.892;2023-07-29T13:24:54;22.80;99.90
33741;DHT22;20065;48.380;10.892;2023-07-29T13:27:40;22.80;99.90
33741;DHT22;20065;48.380;10.892;2023-07-29T13:30:26;22.80;99.90
33741;DHT22;20065;48.380;10.892;2023-07-29T13:33:13;22.80;99.90
33741;DHT22;20065;48.380;10.892;2023-07-29T13:36:00;22.80;99.90
33741;DHT22;20065;48.380;10.892;2023-07-29T13:38:48;22.90;99.90
33741;DHT22;20065;48.380;10.892;2023-07-29T13:41:35;23.00;99.90
33741;DHT22;20065;48.380;10.892;2023-07-29T13:44:21;23.00;99.90
33741;DHT22;20065;48.380;10.892;2023-07-29T13:47:07;22.90;99.90
33741;DHT22;20065;48.380;10.892;2023-07-29T13:49:53;23.00;99.90
33741;DHT22;20065;48.380;10.892;2023-07-29T13:52:39;23.00;99.90
33741;DHT22;20065;48.380;10.892;2023-07-29T13:55:25;23.00;99.90
33741;DHT22;20065;48.380;10.892;2023-07-29T13:58:12;22.90;99.90
33741;DHT22;20065;48.380;10.892;2023-07-29T14:00:58;22.90;99.90
33741;DHT22;20065;48.380;10.892;2023-07-29T14:03:44;22.90;99.90
33741;DHT22;20065;48.380;10.892;2023-07-29T14:06:30;22.90;99.90
33741;DHT22;20065;48.380;10.892;2023-07-29T14:09:16;23.00;99.90
33741;DHT22;20065;48.380;10.892;2023-07-29T14:12:03;23.20;99.90
33741;DHT22;20065;48.380;10.892;2023-07-29T14:14:49;23.50;99.90
33741;DHT22;20065;48.380;10.892;2023-07-29T14:17:36;23.70;99.90
33741;DHT22;20065;48.380;10.892;2023-07-29T14:20:22;23.80;99.90
33741;DHT22;20065;48.380;10.892;2023-07-29T14:23:08;23.90;99.90
33741;DHT22;20065;48.380;10.892;2023-07-29T14:25:54;24.00;99.90
33741;DHT22;20065;48.380;10.892;2023-07-29T14:28:40;23.90;99.90
33741;DHT22;20065;48.380;10.892;2023-07-29T14:31:29;23.90;99.90
33741;DHT22;20065;48.380;10.892;2023-07-29T14:34:15;23.80;99.90
33741;DHT22;20065;48.380;10.892;2023-07-29T14:37:05;23.80;99.90
33741;DHT22;20065;48.380;10.892;2023-07-29T14:39:52;23.70;99.90
33741;DHT22;20065;48.380;10.892;2023-07-29T14:42:40;23.80;99.90
33741;DHT22;20065;48.380;10.892;2023-07-29T14:45:26;23.90;99.90
33741;DHT22;20065;48.380;10.892;2023-07-29T14:48:12;24.00;99.90
33741;DHT22;20065;48.380;10.892;2023-07-29T14:50:58;23.90;99.90
33741;DHT22;20065;48.380;10.892;2023-07-29T14:53:44;23.90;99.90
33741;DHT22;20065;48.380;10.892;2023-07-29T14:56:31;23.90;99.90
33741;DHT22;20065;48.380;10.892;2023-07-29T14:59:17;23.90;99.90
33741;DHT22;20065;48.380;10.892;2023-07-29T15:02:03;23.80;99.90
33741;DHT22;20065;48.380;10.892;2023-07-29T15:04:49;23.80;99.90
33741;DHT22;20065;48.380;10.892;2023-07-29T15:07:36;23.80;99.90
33741;DHT22;20065;48.380;10.892;2023-07-29T15:10:22;23.70;99.90
33741;DHT22;20065;48.380;10.892;2023-07-29T15:13:08;23.60;99.90
33741;DHT22;20065;48.380;10.892;2023-07-29T15:15:54;23.20;99.90
33741;DHT22;20065;48.380;10.892;2023-07-29T15:18:41;22.70;99.90
33741;DHT22;20065;48.380;10.892;2023-07-29T15:21:27;22.40;99.90
33741;DHT22;20065;48.380;10.892;2023-07-29T15:24:14;22.10;99.90
33741;DHT22;20065;48.380;10.892;2023-07-29T15:27:00;22.00;99.90
33741;DHT22;20065;48.380;10.892;2023-07-29T15:29:46;21.90;99.90
33741;DHT22;20065;48.380;10.892;2023-07-29T15:32:32;21.90;99.90
33741;DHT22;20065;48.380;10.892;2023-07-29T15:35:21;21.80;99.90
33741;DHT22;20065;48.380;10.892;2023-07-29T15:38:08;21.70;99.90
33741;DHT22;20065;48.380;10.892;2023-07-29T15:40:55;21.60;99.90
33741;DHT22;20065;48.380;10.892;2023-07-29T15:43:41;21.70;99.90
33741;DHT22;20065;48.380;10.892;2023-07-29T15:46:27;21.70;99.90
33741;DHT22;20065;48.380;10.892;2023-07-29T15:49:13;21.60;99.90
33741;DHT22;20065;48.380;10.892;2023-07-29T15:52:00;21.50;99.90
33741;DHT22;20065;48.380;10.892;2023-07-29T15:54:46;21.50;99.90
33741;DHT22;20065;48.380;10.892;2023-07-29T15:57:32;21.40;99.90
33741;DHT22;20065;48.380;10.892;2023-07-29T16:00:18;21.40;99.90
33741;DHT22;20065;48.380;10.892;2023-07-29T16:03:05;21.30;99.90
33741;DHT22;20065;48.380;10.892;2023-07-29T16:05:51;21.30;99.90
33741;DHT22;20065;48.380;10.892;2023-07-29T16:08:37;21.20;99.90
33741;DHT22;20065;48.380;10.892;2023-07-29T16:11:23;21.10;99.90
33741;DHT22;20065;48.380;10.892;2023-07-29T16:14:09;21.00;99.90
33741;DHT22;20065;48.380;10.892;2023-07-29T16:16:56;20.50;99.90
33741;DHT22;20065;48.380;10.892;2023-07-29T16:19:59;19.60;99.90
33741;DHT22;20065;48.380;10.892;2023-07-29T16:22:47;19.30;99.90
33741;DHT22;20065;48.380;10.892;2023-07-29T16:25:33;19.10;99.90
33741;DHT22;20065;48.380;10.892;2023-07-29T16:28:19;18.90;99.90
33741;DHT22;20065;48.380;10.892;2023-07-29T16:31:05;18.70;99.90
33741;DHT22;20065;48.380;10.892;2023-07-29T16:33:51;18.60;99.90
33741;DHT22;20065;48.380;10.892;2023-07-29T16:36:47;18.60;99.90
33741;DHT22;20065;48.380;10.892;2023-07-29T16:39:36;18.50;99.90
33741;DHT22;20065;48.380;10.892;2023-07-29T16:42:22;18.50;99.90
33741;DHT22;20065;48.380;10.892;2023-07-29T16:45:09;18.50;99.90
33741;DHT22;20065;48.380;10.892;2023-07-29T16:47:56;18.50;99.90
33741;DHT22;20065;48.380;10.892;2023-07-29T16:50:42;18.50;99.90
33741;DHT22;20065;48.380;10.892;2023-07-29T16:53:28;18.50;99.90
33741;DHT22;20065;48.380;10.892;2023-07-29T16:56:15;18.50;99.90
33741;DHT22;20065;48.380;10.892;2023-07-29T16:59:01;18.50;99.90
33741;DHT22;20065;48.380;10.892;2023-07-29T17:01:47;18.50;99.90
33741;DHT22;20065;48.380;10.892;2023-07-29T17:04:34;18.50;99.90
33741;DHT22;20065;48.380;10.892;2023-07-29T17:07:20;18.40;99.90
33741;DHT22;20065;48.380;10.892;2023-07-29T17:10:07;18.50;99.90
33741;DHT22;20065;48.380;10.892;2023-07-29T17:12:53;18.40;99.90
33741;DHT22;20065;48.380;10.892;2023-07-29T17:15:39;18.40;99.90
33741;DHT22;20065;48.380;10.892;2023-07-29T17:18:25;18.20;99.90
33741;DHT22;20065;48.380;10.892;2023-07-29T17:21:12;17.90;99.90
33741;DHT22;20065;48.380;10.892;2023-07-29T17:23:59;17.90;99.90
33741;DHT22;20065;48.380;10.892;2023-07-29T17:26:45;17.90;99.90
33741;DHT22;20065;48.380;10.892;2023-07-29T17:29:31;18.00;99.90
33741;DHT22;20065;48.380;10.892;2023-07-29T17:32:18;18.20;99.90